Time;durP1;ratioP1;P1;durP2;ratioP2;P2;SDS_P1;SDS_P2;PMS_P1;PMS_P2;Temp;Humidity;BMP_temperature;BMP_pressure;BME280_temperature;BME280_humidity;BME280_pressure;Samples;Min_cycle;Max_cycle;Signal;HPM_P1;HPM_P2
2021/08/09 00:00:24;;;;;;;0.10;0.10;;;;;;;;;;6183929;23;20017;-88
2021/08/09 00:02:50;;;;;;;0.10;0.10;;;;;;;;;;6159724;23;20009;-90
2021/08/09 00:05:16;;;;;;;0.10;0.10;;;;;;;;;;6159275;23;20009;-89
2021/08/09 00:07:42;;;;;;;0.20;0.20;;;;;;;;;;6159226;23;20075;-91
2021/08/09 00:10:08;;;;;;;0.10;0.10;;;;;;;;;;6159591;23;20505;-89
2021/08/09 00:12:34;;;;;;;0.10;0.10;;;;;;;;;;6134729;23;20442;-89
2021/08/09 00:15:00;;;;;;;0.10;0.10;;;;;;;;;;6159595;23;20020;-90
2021/08/09 00:17:26;;;;;;;0.10;0.10;;;;;;;;;;6159448;23;20009;-89
2021/08/09 00:19:52;;;;;;;0.10;0.10;;;;;;;;;;6159439;23;20501;-89
2021/08/09 00:22:18;;;;;;;0.10;0.10;;;;;;;;;;6159093;23;20013;-88
2021/08/09 00:24:44;;;;;;;0.10;0.10;;;;;;;;;;6159396;23;20052;-91
2021/08/09 00:27:10;;;;;;;0.10;0.10;;;;;;;;;;6159490;23;20120;-90
2021/08/09 00:29:36;;;;;;;0.10;0.10;;;;;;;;;;6159164;23;20453;-90
2021/08/09 00:32:03;;;;;;;0.40;0.40;;;;;;;;;;6159227;23;20096;-90
2021/08/09 00:34:29;;;;;;;0.10;0.10;;;;;;;;;;6159265;23;20009;-88
2021/08/09 00:36:55;;;;;;;0.10;0.10;;;;;;;;;;6158723;23;20013;-88
2021/08/09 00:39:21;;;;;;;0.10;0.10;;;;;;;;;;6158582;23;20025;-87
2021/08/09 00:41:47;;;;;;;0.10;0.10;;;;;;;;;;6159218;23;20064;-88
2021/08/09 00:44:14;;;;;;;0.10;0.10;;;;;;;;;;6183608;23;20107;-89
2021/08/09 00:46:42;;;;;;;0.10;0.10;;;;;;;;;;6159280;23;20016;-88
2021/08/09 00:49:08;;;;;;;0.10;0.10;;;;;;;;;;6159045;23;20254;-89
2021/08/09 00:51:34;;;;;;;0.13;0.13;;;;;;;;;;6159087;23;20281;-87
2021/08/09 00:54:00;;;;;;;0.10;0.10;;;;;;;;;;6158788;23;20140;-89
2021/08/09 00:56:26;;;;;;;0.10;0.10;;;;;;;;;;6158799;23;20008;-88
2021/08/09 00:58:54;;;;;;;0.20;0.20;;;;;;;;;;6184785;23;20023;-89
2021/08/09 01:01:20;;;;;;;0.10;0.10;;;;;;;;;;6159105;23;20525;-88
2021/08/09 01:03:46;;;;;;;0.10;0.10;;;;;;;;;;6134300;23;20444;-89
2021/08/09 01:06:13;;;;;;;0.10;0.10;;;;;;;;;;6183246;23;20021;-89
2021/08/09 01:08:41;;;;;;;0.17;0.17;;;;;;;;;;6158718;23;20017;-89
2021/08/09 01:11:11;;;;;;;0.10;0.10;;;;;;;;;;6159378;23;20013;-91
2021/08/09 01:13:50;;;;;;;0.20;0.20;;;;;;;;;;6195466;23;20071;-90
2021/08/09 01:16:16;;;;;;;0.10;0.10;;;;;;;;;;6159736;23;20020;-90
2021/08/09 01:18:42;;;;;;;0.10;0.10;;;;;;;;;;6159088;23;20020;-90
2021/08/09 01:21:10;;;;;;;0.10;0.10;;;;;;;;;;6160993;23;20023;-94
2021/08/09 01:23:42;;;;;;;0.10;0.10;;;;;;;;;;6136002;23;20020;-91
2021/08/09 01:26:10;;;;;;;0.10;0.10;;;;;;;;;;6159027;23;20023;-90
2021/08/09 01:28:36;;;;;;;0.10;0.10;;;;;;;;;;6158774;23;20017;-89
2021/08/09 01:31:02;;;;;;;0.10;0.10;;;;;;;;;;6159073;23;20009;-90
2021/08/09 01:33:30;;;;;;;0.20;0.20;;;;;;;;;;6158679;23;20020;-90
2021/08/09 01:35:57;;;;;;;0.10;0.10;;;;;;;;;;6159220;23;20439;-91
2021/08/09 01:38:23;;;;;;;0.10;0.10;;;;;;;;;;6158529;23;20019;-90
2021/08/09 01:40:49;;;;;;;0.10;0.10;;;;;;;;;;6159583;23;20009;-91
2021/08/09 01:43:15;;;;;;;0.20;0.20;;;;;;;;;;6134257;23;20044;-91
2021/08/09 01:45:42;;;;;;;0.10;0.10;;;;;;;;;;6158938;23;20012;-88
2021/08/09 01:48:10;;;;;;;0.10;0.10;;;;;;;;;;6158568;23;20021;-89
2021/08/09 01:50:36;;;;;;;0.10;0.10;;;;;;;;;;6158272;23;20036;-89
2021/08/09 01:53:03;;;;;;;0.20;0.20;;;;;;;;;;6158418;23;20013;-88
2021/08/09 01:55:29;;;;;;;0.20;0.20;;;;;;;;;;6158607;23;20009;-88
2021/08/09 01:57:55;;;;;;;0.10;0.10;;;;;;;;;;6158530;23;20020;-89
2021/08/09 02:00:21;;;;;;;0.10;0.10;;;;;;;;;;6133698;23;20466;-88
2021/08/09 02:02:48;;;;;;;0.20;0.20;;;;;;;;;;6158675;23;20087;-89
2021/08/09 02:05:17;;;;;;;0.25;0.25;;;;;;;;;;6133934;23;20035;-88
2021/08/09 02:07:48;;;;;;;0.10;0.10;;;;;;;;;;6158465;23;20017;-88
2021/08/09 02:10:16;;;;;;;0.10;0.10;;;;;;;;;;6158226;23;20032;-89
2021/08/09 02:12:51;;;;;;;0.10;0.10;;;;;;;;;;6133800;23;20017;-89
2021/08/09 02:15:18;;;;;;;0.13;0.13;;;;;;;;;;6183074;23;20055;-90
2021/08/09 02:17:46;;;;;;;0.10;0.10;;;;;;;;;;6158314;23;20021;-89
2021/08/09 02:20:29;;;;;;;0.10;0.10;;;;;;;;;;6158534;23;20020;-88
2021/08/09 02:22:57;;;;;;;0.10;0.10;;;;;;;;;;6158586;23;20009;-88
2021/08/09 02:25:26;;;;;;;0.10;0.10;;;;;;;;;;6133841;23;20013;-89
2021/08/09 02:27:55;;;;;;;0.10;0.10;;;;;;;;;;6158838;23;20067;-88
2021/08/09 02:30:22;;;;;;;0.10;0.10;;;;;;;;;;6158635;23;20013;-89
2021/08/09 02:32:48;;;;;;;0.10;0.10;;;;;;;;;;6158497;23;20016;-89
2021/08/09 02:35:17;;;;;;;0.10;0.10;;;;;;;;;;6158424;23;20009;-89
2021/08/09 02:37:43;;;;;;;0.10;0.10;;;;;;;;;;6159424;23;20021;-91
2021/08/09 02:40:09;;;;;;;0.10;0.10;;;;;;;;;;6158605;23;20041;-90
2021/08/09 02:42:36;;;;;;;0.10;0.10;;;;;;;;;;6158804;23;20009;-89
2021/08/09 02:45:02;;;;;;;0.10;0.10;;;;;;;;;;6159920;23;20017;-89
2021/08/09 02:47:28;;;;;;;0.10;0.10;;;;;;;;;;6135400;23;20096;-90
2021/08/09 02:49:58;;;;;;;0.10;0.10;;;;;;;;;;6161239;23;20447;-91
2021/08/09 02:52:24;;;;;;;0.10;0.10;;;;;;;;;;6136217;23;20084;-91
2021/08/09 02:54:50;;;;;;;0.10;0.10;;;;;;;;;;6161003;23;20020;-89
2021/08/09 02:57:17;;;;;;;0.10;0.10;;;;;;;;;;6160367;23;20013;-90
2021/08/09 02:59:43;;;;;;;0.10;0.10;;;;;;;;;;6160570;23;20013;-91
2021/08/09 03:02:09;;;;;;;0.10;0.10;;;;;;;;;;6161015;23;20021;-91
2021/08/09 03:04:36;;;;;;;0.10;0.10;;;;;;;;;;6160250;23;20017;-90
2021/08/09 03:07:05;;;;;;;0.10;0.10;;;;;;;;;;6160675;23;20013;-91
2021/08/09 03:09:31;;;;;;;0.10;0.10;;;;;;;;;;6160778;23;20021;-90
2021/08/09 03:11:57;;;;;;;0.10;0.10;;;;;;;;;;6160151;23;20462;-92
2021/08/09 03:14:24;;;;;;;0.10;0.10;;;;;;;;;;6161234;23;20486;-91
2021/08/09 03:16:50;;;;;;;0.10;0.10;;;;;;;;;;6160525;23;20009;-91
2021/08/09 03:19:17;;;;;;;0.10;0.10;;;;;;;;;;6160597;23;20017;-91
2021/08/09 03:21:56;;;;;;;0.10;0.10;;;;;;;;;;6135571;23;20470;-91
2021/08/09 03:24:22;;;;;;;0.10;0.10;;;;;;;;;;6160304;23;20021;-90
2021/08/09 03:26:48;;;;;;;0.20;0.20;;;;;;;;;;6160280;23;20507;-92
2021/08/09 03:29:14;;;;;;;0.10;0.10;;;;;;;;;;6160240;23;20036;-92
2021/08/09 03:31:40;;;;;;;0.30;0.30;;;;;;;;;;6135562;23;20384;-91
2021/08/09 03:34:06;;;;;;;0.10;0.10;;;;;;;;;;6160198;23;20017;-90
2021/08/09 03:36:32;;;;;;;0.13;0.13;;;;;;;;;;6160338;23;20088;-90
2021/08/09 03:38:58;;;;;;;0.10;0.10;;;;;;;;;;6160249;23;20525;-92
2021/08/09 03:41:24;;;;;;;0.10;0.10;;;;;;;;;;6160789;23;20009;-91
2021/08/09 03:43:50;;;;;;;0.10;0.10;;;;;;;;;;6160126;23;20013;-91
2021/08/09 03:46:16;;;;;;;0.10;0.10;;;;;;;;;;6160402;23;20019;-91
2021/08/09 03:48:42;;;;;;;0.10;0.10;;;;;;;;;;6159958;23;20059;-91
2021/08/09 03:51:10;;;;;;;0.10;0.10;;;;;;;;;;6160414;23;20032;-91
2021/08/09 03:53:36;;;;;;;0.10;0.10;;;;;;;;;;6160142;23;20013;-90
2021/08/09 03:56:02;;;;;;;0.10;0.10;;;;;;;;;;6159988;23;20465;-90
2021/08/09 03:58:28;;;;;;;0.10;0.10;;;;;;;;;;6160651;23;20096;-91
2021/08/09 04:00:54;;;;;;;0.10;0.10;;;;;;;;;;6135430;23;20013;-91
2021/08/09 04:03:20;;;;;;;0.10;0.10;;;;;;;;;;6184906;23;20052;-90
2021/08/09 04:05:46;;;;;;;0.20;0.20;;;;;;;;;;6135206;23;20024;-90
2021/08/09 04:08:12;;;;;;;0.10;0.10;;;;;;;;;;6159703;23;20013;-91
2021/08/09 04:10:39;;;;;;;0.10;0.10;;;;;;;;;;6160178;23;20108;-91
2021/08/09 04:13:05;;;;;;;0.20;0.20;;;;;;;;;;6160227;23;20036;-91
2021/08/09 04:15:31;;;;;;;0.10;0.10;;;;;;;;;;6160191;23;20092;-90
2021/08/09 04:17:57;;;;;;;0.10;0.10;;;;;;;;;;6160013;23;20088;-91
2021/08/09 04:20:23;;;;;;;0.20;0.20;;;;;;;;;;6160216;23;20032;-91
2021/08/09 04:22:49;;;;;;;0.10;0.10;;;;;;;;;;6135150;23;20451;-92
2021/08/09 04:25:15;;;;;;;0.20;0.20;;;;;;;;;;6160173;23;20080;-90
2021/08/09 04:27:41;;;;;;;0.10;0.10;;;;;;;;;;6159640;23;20043;-91
2021/08/09 04:30:07;;;;;;;0.10;0.10;;;;;;;;;;6160258;23;20013;-91
2021/08/09 04:32:38;;;;;;;0.10;0.10;;;;;;;;;;6160138;23;20048;-92
2021/08/09 04:35:10;;;;;;;0.10;0.10;;;;;;;;;;6160445;23;20005;-91
2021/08/09 04:37:36;;;;;;;0.10;0.10;;;;;;;;;;6159198;23;20439;-90
2021/08/09 04:40:02;;;;;;;0.10;0.10;;;;;;;;;;6159302;23;20039;-89
2021/08/09 04:42:28;;;;;;;0.10;0.10;;;;;;;;;;6160227;23;20087;-91
2021/08/09 04:44:55;;;;;;;0.10;0.10;;;;;;;;;;6160139;23;20009;-91
2021/08/09 04:47:21;;;;;;;0.20;0.20;;;;;;;;;;6159901;23;20020;-90
2021/08/09 04:49:47;;;;;;;0.10;0.10;;;;;;;;;;6159630;23;20009;-91
2021/08/09 04:52:15;;;;;;;0.20;0.20;;;;;;;;;;6159711;23;20071;-92
2021/08/09 04:54:41;;;;;;;0.10;0.10;;;;;;;;;;6159543;23;20418;-89
2021/08/09 04:57:08;;;;;;;0.10;0.10;;;;;;;;;;6158862;23;20502;-89
2021/08/09 04:59:34;;;;;;;0.20;0.20;;;;;;;;;;6159194;23;20020;-89
2021/08/09 05:02:00;;;;;;;0.10;0.10;;;;;;;;;;6159316;23;20016;-89
2021/08/09 05:04:28;;;;;;;0.20;0.20;;;;;;;;;;6134740;23;20518;-89
2021/08/09 05:06:55;;;;;;;0.10;0.10;;;;;;;;;;6159185;23;20016;-89
2021/08/09 05:09:22;;;;;;;0.20;0.20;;;;;;;;;;6158800;23;20041;-90
2021/08/09 05:11:51;;;;;;;0.10;0.10;;;;;;;;;;6159783;23;20017;-89
2021/08/09 05:14:17;;;;;;;0.10;0.10;;;;;;;;;;6159283;23;20017;-90
2021/08/09 05:16:43;;;;;;;0.10;0.10;;;;;;;;;;6159746;23;20013;-89
2021/08/09 05:19:11;;;;;;;0.10;0.10;;;;;;;;;;6159034;23;20017;-88
2021/08/09 05:21:49;;;;;;;0.10;0.10;;;;;;;;;;6171080;23;20013;-88
2021/08/09 05:24:17;;;;;;;0.10;0.10;;;;;;;;;;6159253;23;20016;-88
2021/08/09 05:26:43;;;;;;;0.10;0.10;;;;;;;;;;6158738;23;20013;-88
2021/08/09 05:29:09;;;;;;;0.10;0.10;;;;;;;;;;6158646;23;20020;-88
2021/08/09 05:31:40;;;;;;;0.10;0.10;;;;;;;;;;6159554;23;20013;-88
2021/08/09 05:34:07;;;;;;;0.10;0.10;;;;;;;;;;6158916;23;20020;-88
2021/08/09 05:36:33;;;;;;;0.10;0.10;;;;;;;;;;6158880;23;20020;-90
2021/08/09 05:39:00;;;;;;;0.10;0.10;;;;;;;;;;6158804;23;20016;-90
2021/08/09 05:41:28;;;;;;;0.10;0.10;;;;;;;;;;6159370;23;20009;-88
2021/08/09 05:43:54;;;;;;;0.10;0.10;;;;;;;;;;6158520;23;20013;-89
2021/08/09 05:46:20;;;;;;;0.10;0.10;;;;;;;;;;6158411;23;20013;-88
2021/08/09 05:48:46;;;;;;;0.10;0.10;;;;;;;;;;6158170;23;20013;-88
2021/08/09 05:51:12;;;;;;;0.10;0.10;;;;;;;;;;6158767;23;20096;-89
2021/08/09 05:53:40;;;;;;;0.10;0.10;;;;;;;;;;6158688;23;20013;-89
2021/08/09 05:56:06;;;;;;;0.10;0.10;;;;;;;;;;6183133;23;20039;-89
2021/08/09 05:58:32;;;;;;;0.10;0.10;;;;;;;;;;6184559;23;20040;-88
2021/08/09 06:00:58;;;;;;;0.10;0.10;;;;;;;;;;6182923;23;20451;-89
2021/08/09 06:03:25;;;;;;;0.10;0.10;;;;;;;;;;6158474;23;20132;-88
2021/08/09 06:05:54;;;;;;;0.10;0.10;;;;;;;;;;6158531;23;20009;-89
2021/08/09 06:08:20;;;;;;;0.10;0.10;;;;;;;;;;6158973;23;20055;-89
2021/08/09 06:10:46;;;;;;;0.10;0.10;;;;;;;;;;6158223;23;20029;-90
2021/08/09 06:13:12;;;;;;;0.10;0.10;;;;;;;;;;6158324;23;20063;-88
2021/08/09 06:15:38;;;;;;;0.10;0.10;;;;;;;;;;6158538;23;20013;-88
2021/08/09 06:18:04;;;;;;;0.10;0.10;;;;;;;;;;6158663;23;20108;-90
2021/08/09 06:20:30;;;;;;;0.17;0.17;;;;;;;;;;6160412;23;20103;-91
2021/08/09 06:22:57;;;;;;;0.10;0.10;;;;;;;;;;6185578;23;20017;-90
2021/08/09 06:25:27;;;;;;;0.10;0.10;;;;;;;;;;6160794;23;20017;-95
2021/08/09 06:27:55;;;;;;;0.20;0.20;;;;;;;;;;6160676;23;20394;-96
2021/08/09 06:30:22;;;;;;;0.20;0.20;;;;;;;;;;6135959;23;20037;-93
2021/08/09 06:32:48;;;;;;;0.10;0.10;;;;;;;;;;6136784;23;20096;-96
2021/08/09 06:35:14;;;;;;;0.10;0.10;;;;;;;;;;6136565;23;20024;-88
2021/08/09 06:37:41;;;;;;;0.10;0.10;;;;;;;;;;6160600;23;20013;-89
2021/08/09 06:40:07;;;;;;;0.20;0.20;;;;;;;;;;6160705;23;20013;-86
2021/08/09 06:42:33;;;;;;;0.10;0.10;;;;;;;;;;6160029;23;20064;-88
2021/08/09 06:44:59;;;;;;;0.20;0.20;;;;;;;;;;6159945;23;20013;-88
2021/08/09 06:47:26;;;;;;;0.10;0.10;;;;;;;;;;6159522;23;20013;-87
2021/08/09 06:49:52;;;;;;;0.10;0.10;;;;;;;;;;6185964;23;20076;-88
2021/08/09 06:52:20;;;;;;;0.10;0.10;;;;;;;;;;6135139;23;20020;-88
2021/08/09 06:54:49;;;;;;;0.10;0.10;;;;;;;;;;6160531;23;20022;-92
2021/08/09 06:57:16;;;;;;;0.10;0.10;;;;;;;;;;6159345;23;20019;-92
2021/08/09 06:59:42;;;;;;;0.10;0.10;;;;;;;;;;6135673;23;20021;-92
2021/08/09 07:02:08;;;;;;;0.10;0.10;;;;;;;;;;6160516;23;20067;-93
2021/08/09 07:04:34;;;;;;;0.10;0.10;;;;;;;;;;6135072;23;20024;-90
2021/08/09 07:07:00;;;;;;;0.10;0.10;;;;;;;;;;6185656;23;20016;-89
2021/08/09 07:09:26;;;;;;;0.10;0.10;;;;;;;;;;6158168;23;20016;-88
2021/08/09 07:11:52;;;;;;;0.20;0.20;;;;;;;;;;6159786;23;20439;-89
2021/08/09 07:14:20;;;;;;;0.45;0.22;;;;;;;;;;6159753;23;20087;-90
2021/08/09 07:16:46;;;;;;;0.20;0.20;;;;;;;;;;6159249;23;20040;-90
2021/08/09 07:19:12;;;;;;;0.10;0.10;;;;;;;;;;6159197;23;20021;-90
2021/08/09 07:21:38;;;;;;;0.15;0.15;;;;;;;;;;6159610;23;20086;-90
2021/08/09 07:24:04;;;;;;;0.10;0.10;;;;;;;;;;6159409;23;20076;-90
2021/08/09 07:26:32;;;;;;;0.25;0.25;;;;;;;;;;6159211;23;20040;-89
2021/08/09 07:28:59;;;;;;;0.20;0.20;;;;;;;;;;6183929;23;20009;-89
2021/08/09 07:31:25;;;;;;;0.20;0.20;;;;;;;;;;6159230;23;20109;-89
2021/08/09 07:33:51;;;;;;;0.20;0.20;;;;;;;;;;6159695;23;20396;-89
2021/08/09 07:36:17;;;;;;;0.10;0.10;;;;;;;;;;6160798;23;20016;-89
2021/08/09 07:38:43;;;;;;;0.32;0.32;;;;;;;;;;6159031;23;20021;-89
2021/08/09 07:41:09;;;;;;;0.13;0.13;;;;;;;;;;6159284;23;20013;-89
2021/08/09 07:43:35;;;;;;;0.20;0.20;;;;;;;;;;6159378;23;20384;-89
2021/08/09 07:46:01;;;;;;;0.10;0.10;;;;;;;;;;6159491;23;20020;-89
2021/08/09 07:48:27;;;;;;;0.10;0.10;;;;;;;;;;6159036;23;20031;-88
2021/08/09 07:50:53;;;;;;;0.10;0.10;;;;;;;;;;6159170;23;20017;-88
2021/08/09 07:53:20;;;;;;;0.10;0.10;;;;;;;;;;6159402;23;20043;-89
2021/08/09 07:55:46;;;;;;;0.35;0.15;;;;;;;;;;6159254;23;20071;-87
2021/08/09 07:58:12;;;;;;;0.10;0.10;;;;;;;;;;6159116;23;20017;-90
2021/08/09 08:00:39;;;;;;;0.20;0.20;;;;;;;;;;6158795;23;20020;-88
2021/08/09 08:03:06;;;;;;;0.10;0.10;;;;;;;;;;6159286;23;20016;-88
2021/08/09 08:05:32;;;;;;;0.10;0.10;;;;;;;;;;6159391;23;20343;-90
2021/08/09 08:07:58;;;;;;;0.10;0.10;;;;;;;;;;6158970;23;20088;-89
2021/08/09 08:10:24;;;;;;;0.10;0.10;;;;;;;;;;6160084;23;20043;-90
2021/08/09 08:12:50;;;;;;;0.10;0.10;;;;;;;;;;6159360;23;20013;-91
2021/08/09 08:15:16;;;;;;;0.40;0.40;;;;;;;;;;6158872;23;20083;-88
2021/08/09 08:17:42;;;;;;;0.17;0.17;;;;;;;;;;6158951;23;20017;-88
2021/08/09 08:20:09;;;;;;;0.20;0.20;;;;;;;;;;6159154;23;20009;-90
2021/08/09 08:22:35;;;;;;;0.10;0.10;;;;;;;;;;6158893;23;20020;-88
2021/08/09 08:25:01;;;;;;;0.20;0.20;;;;;;;;;;6159128;23;20017;-89
2021/08/09 08:27:27;;;;;;;0.20;0.20;;;;;;;;;;6159088;23;20379;-91
2021/08/09 08:29:53;;;;;;;0.10;0.10;;;;;;;;;;6159721;23;20037;-91
2021/08/09 08:32:19;;;;;;;0.10;0.10;;;;;;;;;;6185642;23;20009;-93
2021/08/09 08:34:45;;;;;;;0.10;0.10;;;;;;;;;;6159659;23;20016;-91
2021/08/09 08:37:11;;;;;;;0.20;0.20;;;;;;;;;;6159103;23;20065;-91
2021/08/09 08:39:37;;;;;;;0.10;0.10;;;;;;;;;;6158942;23;20045;-91
2021/08/09 08:42:03;;;;;;;0.22;0.22;;;;;;;;;;6158454;23;20009;-89
2021/08/09 08:44:29;;;;;;;0.10;0.10;;;;;;;;;;6158672;23;20447;-90
2021/08/09 08:46:55;;;;;;;0.20;0.20;;;;;;;;;;6158971;23;20013;-89
2021/08/09 08:49:23;;;;;;;0.10;0.10;;;;;;;;;;6158596;23;20016;-89
2021/08/09 08:51:49;;;;;;;0.10;0.10;;;;;;;;;;6158854;23;20013;-90
2021/08/09 08:54:15;;;;;;;0.10;0.10;;;;;;;;;;6158809;23;20122;-89
2021/08/09 08:56:43;;;;;;;0.20;0.20;;;;;;;;;;6158852;23;20029;-90
2021/08/09 08:59:17;;;;;;;0.10;0.10;;;;;;;;;;6158640;23;20017;-89
2021/08/09 09:01:45;;;;;;;0.10;0.10;;;;;;;;;;6183580;23;20017;-89
2021/08/09 09:04:21;;;;;;;0.10;0.10;;;;;;;;;;6158618;23;20501;-90
2021/08/09 09:06:47;;;;;;;0.30;0.30;;;;;;;;;;6158730;23;20037;-90
2021/08/09 09:09:21;;;;;;;0.10;0.10;;;;;;;;;;6158670;23;20016;-90
2021/08/09 09:11:47;;;;;;;0.10;0.10;;;;;;;;;;6157379;23;20017;-89
2021/08/09 09:14:13;;;;;;;0.20;0.20;;;;;;;;;;6158639;23;20379;-89
2021/08/09 09:16:45;;;;;;;0.10;0.10;;;;;;;;;;6158115;23;20009;-90
2021/08/09 09:19:12;;;;;;;0.20;0.20;;;;;;;;;;6161283;23;20402;-89
2021/08/09 09:21:40;;;;;;;0.20;0.20;;;;;;;;;;6158479;23;20455;-90
2021/08/09 09:24:17;;;;;;;0.10;0.10;;;;;;;;;;6158624;23;20055;-88
2021/08/09 09:26:52;;;;;;;0.28;0.28;;;;;;;;;;6158734;23;20477;-89
2021/08/09 09:29:23;;;;;;;1.23;0.45;;;;;;;;;;6159933;23;20017;-89
2021/08/09 09:31:49;;;;;;;0.20;0.20;;;;;;;;;;6158388;23;20470;-89
2021/08/09 09:34:16;;;;;;;0.10;0.10;;;;;;;;;;6158322;23;20013;-89
2021/08/09 09:36:58;;;;;;;0.20;0.20;;;;;;;;;;6132854;23;20028;-91
2021/08/09 09:39:29;;;;;;;0.20;0.20;;;;;;;;;;6159175;23;20027;-91
2021/08/09 09:41:55;;;;;;;0.20;0.20;;;;;;;;;;6134302;23;20021;-90
2021/08/09 09:44:25;;;;;;;0.20;0.20;;;;;;;;;;6158392;23;20071;-89
2021/08/09 09:46:51;;;;;;;0.20;0.20;;;;;;;;;;6157984;23;20443;-90
2021/08/09 09:49:33;;;;;;;0.20;0.20;;;;;;;;;;6158425;23;20013;-91
2021/08/09 09:51:59;;;;;;;;;;;;;;;;;;6183212;23;20013;-91
2021/08/09 09:54:26;;;;;;;0.43;0.43;;;;;;;;;;6157750;23;20184;-91
2021/08/09 09:56:54;;;;;;;0.20;0.20;;;;;;;;;;6158417;23;20104;-90
2021/08/09 09:59:20;;;;;;;0.20;0.20;;;;;;;;;;6158404;23;20112;-91
2021/08/09 10:01:46;;;;;;;0.20;0.20;;;;;;;;;;6158217;23;20013;-90
2021/08/09 10:04:12;;;;;;;0.88;0.73;;;;;;;;;;6157839;23;20024;-90
2021/08/09 10:06:38;;;;;;;0.17;0.17;;;;;;;;;;6159169;23;20009;-90
2021/08/09 10:09:05;;;;;;;0.20;0.20;;;;;;;;;;6158432;23;20447;-90
2021/08/09 10:11:31;;;;;;;0.20;0.20;;;;;;;;;;6158906;23;20017;-95
2021/08/09 10:13:59;;;;;;;0.20;0.20;;;;;;;;;;6184046;23;20009;-88
2021/08/09 10:16:29;;;;;;;0.20;0.20;;;;;;;;;;6158047;23;20020;-90
2021/08/09 10:18:55;;;;;;;0.20;0.20;;;;;;;;;;6167892;23;20013;-90
2021/08/09 10:21:23;;;;;;;0.20;0.20;;;;;;;;;;6158210;23;20067;-90
2021/08/09 10:23:50;;;;;;;0.20;0.20;;;;;;;;;;6158152;23;20020;-90
2021/08/09 10:26:22;;;;;;;0.17;0.17;;;;;;;;;;6158098;23;20458;-91
2021/08/09 10:28:54;;;;;;;0.10;0.10;;;;;;;;;;6182878;23;20517;-89
2021/08/09 10:31:28;;;;;;;0.20;0.20;;;;;;;;;;6183012;23;20017;-90
2021/08/09 10:33:54;;;;;;;0.20;0.20;;;;;;;;;;6158100;23;20380;-92
2021/08/09 10:36:21;;;;;;;0.10;0.10;;;;;;;;;;6157746;23;20009;-90
2021/08/09 10:38:47;;;;;;;0.10;0.10;;;;;;;;;;6158071;23;20021;-90
2021/08/09 10:41:13;;;;;;;0.20;0.20;;;;;;;;;;6157301;23;20092;-90
2021/08/09 10:43:58;;;;;;;0.20;0.20;;;;;;;;;;6184051;23;20048;-89
2021/08/09 10:46:40;;;;;;;0.20;0.20;;;;;;;;;;6184007;23;20093;-91
2021/08/09 10:49:06;;;;;;;;;;;;;;;;;;6158143;23;20017;-90
2021/08/09 10:51:50;;;;;;;0.20;0.20;;;;;;;;;;6183987;23;19999;-90
2021/08/09 10:54:26;;;;;;;0.20;0.20;;;;;;;;;;6184011;23;20072;-90
2021/08/09 10:56:55;;;;;;;0.10;0.10;;;;;;;;;;6184041;23;20075;-91
2021/08/09 10:59:39;;;;;;;0.20;0.20;;;;;;;;;;6158455;23;20017;-88
2021/08/09 11:02:06;;;;;;;0.20;0.20;;;;;;;;;;6183989;23;20020;-89
2021/08/09 11:04:32;;;;;;;0.10;0.10;;;;;;;;;;6157932;23;20017;-89
2021/08/09 11:06:58;;;;;;;0.10;0.10;;;;;;;;;;6159442;23;20016;-88
2021/08/09 11:09:30;;;;;;;0.20;0.20;;;;;;;;;;6159184;23;20013;-87
2021/08/09 11:12:15;;;;;;;0.20;0.20;;;;;;;;;;6183958;23;20016;-87
2021/08/09 11:15:03;;;;;;;0.20;0.20;;;;;;;;;;6185759;23;20035;-87
2021/08/09 11:17:30;;;;;;;0.20;0.20;;;;;;;;;;6185247;23;20013;-87
2021/08/09 11:20:15;;;;;;;0.10;0.10;;;;;;;;;;6159567;23;20509;-87
2021/08/09 11:22:42;;;;;;;0.10;0.10;;;;;;;;;;6159122;23;20350;-88
2021/08/09 11:25:23;;;;;;;0.20;0.20;;;;;;;;;;6159263;23;20009;-88
2021/08/09 11:27:58;;;;;;;0.20;0.20;;;;;;;;;;6186001;23;20012;-89
2021/08/09 11:30:43;;;;;;;0.20;0.20;;;;;;;;;;6186095;23;20451;-90
2021/08/09 11:33:38;;;;;;;0.10;0.10;;;;;;;;;;6158190;23;20029;-89
2021/08/09 11:36:05;;;;;;;0.20;0.20;;;;;;;;;;6138917;23;20025;-89
2021/08/09 11:38:48;;;;;;;0.20;0.20;;;;;;;;;;6158899;23;20028;-89
2021/08/09 11:41:34;;;;;;;0.10;0.10;;;;;;;;;;6159192;23;20339;-89
2021/08/09 11:44:05;;;;;;;0.10;0.10;;;;;;;;;;6169086;23;20009;-89
2021/08/09 11:46:31;;;;;;;0.20;0.20;;;;;;;;;;6160006;23;20009;-89
2021/08/09 11:48:58;;;;;;;0.13;0.13;;;;;;;;;;6159086;23;20431;-88
2021/08/09 11:51:25;;;;;;;0.13;0.13;;;;;;;;;;6159671;23;20016;-89
2021/08/09 11:53:52;;;;;;;0.20;0.20;;;;;;;;;;6159289;23;20013;-88
2021/08/09 11:56:22;;;;;;;0.15;0.15;;;;;;;;;;6159485;23;20087;-89
2021/08/09 11:58:49;;;;;;;0.30;0.30;;;;;;;;;;6185189;23;20028;-88
2021/08/09 12:01:19;;;;;;;0.10;0.10;;;;;;;;;;6158948;23;20382;-88
2021/08/09 12:04:02;;;;;;;0.20;0.20;;;;;;;;;;6159432;23;20380;-89
2021/08/09 12:06:28;;;;;;;;;;;;;;;;;;6159903;23;20436;-88
2021/08/09 12:08:54;;;;;;;0.20;0.20;;;;;;;;;;6185993;23;19962;-88
2021/08/09 12:11:30;;;;;;;0.10;0.10;;;;;;;;;;6184137;23;20024;-89
2021/08/09 12:14:03;;;;;;;0.10;0.10;;;;;;;;;;6158998;23;20092;-87
2021/08/09 12:16:29;;;;;;;0.20;0.20;;;;;;;;;;6184313;23;20005;-89
2021/08/09 12:18:55;;;;;;;0.20;0.20;;;;;;;;;;6183471;23;20039;-88
2021/08/09 12:21:21;;;;;;;0.10;0.10;;;;;;;;;;6159102;23;20019;-89
2021/08/09 12:23:51;;;;;;;0.10;0.10;;;;;;;;;;6158907;23;20347;-90
2021/08/09 12:26:21;;;;;;;0.10;0.10;;;;;;;;;;6134227;23;20013;-92
2021/08/09 12:28:54;;;;;;;0.10;0.10;;;;;;;;;;6158803;23;20005;-89
2021/08/09 12:31:32;;;;;;;0.10;0.10;;;;;;;;;;6158730;23;20063;-88
2021/08/09 12:34:02;;;;;;;0.10;0.10;;;;;;;;;;6183284;23;20490;-89
2021/08/09 12:36:28;;;;;;;0.17;0.17;;;;;;;;;;6156029;23;20020;-88
2021/08/09 12:38:54;;;;;;;0.20;0.20;;;;;;;;;;6158088;23;20462;-88
2021/08/09 12:41:24;;;;;;;0.20;0.20;;;;;;;;;;6184871;23;20013;-88
2021/08/09 12:43:50;;;;;;;0.10;0.10;;;;;;;;;;6158758;23;20025;-88
2021/08/09 12:46:16;;;;;;;0.20;0.20;;;;;;;;;;6158476;23;20017;-88
2021/08/09 12:48:46;;;;;;;0.20;0.20;;;;;;;;;;6158671;23;20088;-89
2021/08/09 12:51:12;;;;;;;0.20;0.20;;;;;;;;;;6184699;23;20055;-88
2021/08/09 12:53:38;;;;;;;0.20;0.20;;;;;;;;;;6133610;23;20063;-88
2021/08/09 12:56:04;;;;;;;0.10;0.10;;;;;;;;;;6158673;23;20083;-88
2021/08/09 12:58:30;;;;;;;0.10;0.10;;;;;;;;;;6158621;23;20084;-88
2021/08/09 13:00:58;;;;;;;0.10;0.10;;;;;;;;;;6133935;23;20067;-88
2021/08/09 13:03:24;;;;;;;0.10;0.10;;;;;;;;;;6184773;23;20013;-88
2021/08/09 13:05:50;;;;;;;0.20;0.20;;;;;;;;;;6185130;23;20067;-91
2021/08/09 13:08:16;;;;;;;0.10;0.10;;;;;;;;;;6209381;22;20022;-89
2021/08/09 13:10:42;;;;;;;0.10;0.10;;;;;;;;;;6248380;22;20047;-88
2021/08/09 13:13:08;;;;;;;0.17;0.17;;;;;;;;;;6274175;22;20011;-87
2021/08/09 13:15:34;;;;;;;0.20;0.20;;;;;;;;;;6248772;22;20019;-88
2021/08/09 13:18:00;;;;;;;0.20;0.20;;;;;;;;;;6254743;22;20430;-89
2021/08/09 13:20:26;;;;;;;0.10;0.10;;;;;;;;;;6218215;23;20020;-90
2021/08/09 13:22:52;;;;;;;0.20;0.20;;;;;;;;;;6218276;23;20381;-88
2021/08/09 13:25:18;;;;;;;0.17;0.17;;;;;;;;;;6218291;23;20043;-89
2021/08/09 13:27:44;;;;;;;0.20;0.20;;;;;;;;;;6244879;22;20012;-88
2021/08/09 13:30:10;;;;;;;0.20;0.20;;;;;;;;;;6243484;23;20016;-88
2021/08/09 13:32:36;;;;;;;0.35;0.35;;;;;;;;;;6218267;23;20095;-90
2021/08/09 13:35:02;;;;;;;0.20;0.20;;;;;;;;;;6216694;23;20094;-91
2021/08/09 13:37:30;;;;;;;0.10;0.10;;;;;;;;;;6218423;23;20374;-90
2021/08/09 13:39:56;;;;;;;0.10;0.10;;;;;;;;;;6243509;23;20441;-90
2021/08/09 13:42:22;;;;;;;0.10;0.10;;;;;;;;;;6243291;23;20426;-91
2021/08/09 13:44:49;;;;;;;0.20;0.20;;;;;;;;;;6217936;23;20065;-92
2021/08/09 13:47:16;;;;;;;0.10;0.10;;;;;;;;;;6194495;23;20434;-90
2021/08/09 13:49:42;;;;;;;0.10;0.10;;;;;;;;;;6217624;23;20020;-91
2021/08/09 13:52:08;;;;;;;0.20;0.20;;;;;;;;;;6218919;23;20027;-91
2021/08/09 13:54:34;;;;;;;0.10;0.10;;;;;;;;;;6218702;23;20044;-90
2021/08/09 13:57:00;;;;;;;0.13;0.13;;;;;;;;;;6218453;23;20027;-91
2021/08/09 13:59:26;;;;;;;0.10;0.10;;;;;;;;;;6218414;23;20016;-91
2021/08/09 14:01:56;;;;;;;0.10;0.10;;;;;;;;;;6243217;23;20012;-90
2021/08/09 14:04:22;;;;;;;0.77;0.47;;;;;;;;;;6243422;23;20023;-91
2021/08/09 14:06:48;;;;;;;0.20;0.20;;;;;;;;;;6217664;22;20008;-90
2021/08/09 14:09:14;;;;;;;0.10;0.10;;;;;;;;;;6202779;23;20091;-91
2021/08/09 14:11:41;;;;;;;0.20;0.20;;;;;;;;;;6170469;23;20518;-96
2021/08/09 14:14:07;;;;;;;0.20;0.20;;;;;;;;;;6195589;23;20004;-91
2021/08/09 14:16:33;;;;;;;0.50;0.50;;;;;;;;;;6192878;22;20375;-88
2021/08/09 14:18:59;;;;;;;0.10;0.10;;;;;;;;;;6218175;23;20020;-90
2021/08/09 14:21:25;;;;;;;0.10;0.10;;;;;;;;;;6217853;23;20342;-90
2021/08/09 14:23:51;;;;;;;0.20;0.20;;;;;;;;;;6192786;23;20087;-89
2021/08/09 14:26:17;;;;;;;0.20;0.20;;;;;;;;;;6218102;23;20443;-88
2021/08/09 14:28:43;;;;;;;0.20;0.20;;;;;;;;;;6192898;23;20013;-89
2021/08/09 14:31:09;;;;;;;0.10;0.10;;;;;;;;;;6167635;23;20031;-91
2021/08/09 14:33:36;;;;;;;0.20;0.20;;;;;;;;;;6218440;23;20020;-91
2021/08/09 14:36:03;;;;;;;0.10;0.10;;;;;;;;;;6168884;23;20112;-91
2021/08/09 14:38:30;;;;;;;0.10;0.10;;;;;;;;;;6168340;23;20016;-90
2021/08/09 14:40:56;;;;;;;0.10;0.10;;;;;;;;;;6194539;23;20016;-90
2021/08/09 14:43:22;;;;;;;0.10;0.10;;;;;;;;;;6220225;23;20021;-92
2021/08/09 14:45:48;;;;;;;0.10;0.10;;;;;;;;;;6169496;23;20027;-89